Terminal Aerodrome Forecast
Issued by NWS

Home | Current Version | Previous Version | Text Only | Print | Product List | Glossary On
Versions: 1 2 3 4 5 6 7 8 9 10 11 12 13 14 15 16 17 18 19 20
000
FTUS43 KMQT 190500
TAFCMX
TAF
KCMX 190534Z 1906/2006 10006KT P6SM BKN100
     FM191600 11013G20KT 6SM -SHRA OVC050
     FM191800 11013G20KT P6SM BKN050
     FM192200 11012G18KT 5SM -SHRA OVC040
     FM200200 11010KT P6SM OVC035=

USA.gov is the U.S. government's official web portal to all federal, state and local government web resources and services.